Time;durP1;ratioP1;P1;durP2;ratioP2;P2;SDS_P1;SDS_P2;PMS_P1;PMS_P2;Temp;Humidity;BMP_temperature;BMP_pressure;BME280_temperature;BME280_humidity;BME280_pressure;Samples;Min_cycle;Max_cycle;Signal;HPM_P1;HPM_P2
2023/06/27 00:02:12;;;;;;;9.95;3.63;;;;;;;19.90;72.15;99559.97;4821883;29;20129;-84
2023/06/27 00:04:56;;;;;;;12.40;4.03;;;;;;;19.66;72.81;99554.81;4810397;29;20048;-83
2023/06/27 00:07:44;;;;;;;14.98;3.88;;;;;;;19.69;72.70;99529.56;4820943;29;20095;-83
2023/06/27 00:10:28;;;;;;;10.45;3.90;;;;;;;19.81;72.66;99535.59;4821503;29;20049;-84
2023/06/27 00:13:15;;;;;;;9.43;4.00;;;;;;;19.70;72.76;99544.50;4820926;29;20466;-79
2023/06/27 00:16:00;;;;;;;9.10;3.92;;;;;;;19.65;73.08;99547.06;4809903;29;20554;-78
2023/06/27 00:18:49;;;;;;;10.73;4.00;;;;;;;19.48;73.58;99531.91;4817989;29;20044;-79
2023/06/27 00:21:35;;;;;;;8.82;3.67;;;;;;;19.45;73.70;99537.69;4814766;29;20103;-78
2023/06/27 00:24:19;;;;;;;18.38;4.10;;;;;;;19.40;74.07;99541.09;4817932;29;20081;-79
2023/06/27 00:27:04;;;;;;;8.95;3.88;;;;;;;19.36;74.16;99544.47;4804269;29;20049;-78
2023/06/27 00:29:48;;;;;;;9.95;3.78;;;;;;;19.37;74.12;99541.59;4817010;29;20049;-78
2023/06/27 00:32:33;;;;;;;11.70;4.30;;;;;;;19.30;74.36;99537.47;4816196;29;20099;-78
2023/06/27 00:35:17;;;;;;;9.55;3.65;;;;;;;19.29;74.71;99538.50;4826468;29;20071;-78
2023/06/27 00:38:02;;;;;;;7.88;4.15;;;;;;;19.09;75.04;99540.56;4811794;29;20045;-78
2023/06/27 00:40:46;;;;;;;13.13;3.63;;;;;;;19.43;74.14;99539.00;4819403;29;20065;-78
2023/06/27 00:43:30;;;;;;;12.35;4.00;;;;;;;19.58;74.05;99541.09;4812657;29;20049;-78
2023/06/27 00:46:26;;;;;;;8.13;3.45;;;;;;;19.61;73.90;99541.44;4815072;29;20562;-77
2023/06/27 00:49:12;;;;;;;6.15;3.35;;;;;;;19.48;74.29;99523.09;4821782;29;20049;-78
2023/06/27 00:51:56;;;;;;;14.70;4.45;;;;;;;19.50;74.52;99529.81;4818886;29;20040;-78
2023/06/27 00:54:41;;;;;;;10.18;4.13;;;;;;;19.60;74.41;99533.66;4820266;29;20412;-79
2023/06/27 00:57:25;;;;;;;15.07;4.05;;;;;;;19.70;74.04;99528.53;4830371;29;20045;-78
2023/06/27 01:00:13;;;;;;;12.80;4.18;;;;;;;19.62;74.16;99507.59;4820428;29;20065;-79
2023/06/27 01:02:57;;;;;;;11.20;4.00;;;;;;;19.76;73.70;99511.56;4807368;29;20080;-79
2023/06/27 01:05:42;;;;;;;14.52;4.38;;;;;;;19.72;73.84;99518.44;4819786;29;20103;-80
2023/06/27 01:08:44;;;;;;;12.93;3.97;;;;;;;19.72;73.89;99515.75;4818092;29;20164;-79
2023/06/27 01:11:36;;;;;;;11.63;3.95;;;;;;;19.67;73.97;99523.69;4819863;29;20102;-78
2023/06/27 01:14:23;;;;;;;8.25;3.70;;;;;;;19.54;74.37;99519.47;4816195;29;20054;-78
2023/06/27 01:17:08;;;;;;;13.85;4.18;;;;;;;19.44;74.70;99514.78;4821367;29;20111;-79
2023/06/27 01:19:54;;;;;;;14.05;4.38;;;;;;;19.47;75.19;99524.97;4821411;29;20122;-78
2023/06/27 01:22:46;;;;;;;11.32;3.78;;;;;;;19.53;74.86;99526.66;4819989;29;20045;-79
2023/06/27 01:25:31;;;;;;;8.02;3.33;;;;;;;19.52;75.11;99538.38;4830286;29;20493;-78
2023/06/27 01:28:15;;;;;;;12.57;3.35;;;;;;;19.15;76.16;99517.50;4811275;29;20053;-78
2023/06/27 01:31:01;;;;;;;16.55;4.40;;;;;;;19.63;75.10;99519.88;4820899;29;20053;-78
2023/06/27 01:33:51;;;;;;;12.57;4.43;;;;;;;19.51;75.14;99517.28;4820466;29;20578;-78
2023/06/27 01:36:51;;;;;;;13.57;4.43;;;;;;;19.74;74.63;99512.84;4819618;29;20451;-78
2023/06/27 01:39:44;;;;;;;14.45;4.03;;;;;;;19.63;75.03;99509.22;4821038;29;20599;-78
2023/06/27 01:42:34;;;;;;;13.70;4.22;;;;;;;19.48;75.53;99513.28;4816210;29;20175;-79
2023/06/27 01:45:19;;;;;;;9.25;3.70;;;;;;;19.34;75.87;99514.63;4814613;29;20050;-79
2023/06/27 01:48:04;;;;;;;6.95;3.65;;;;;;;19.36;75.94;99512.53;4815099;29;20092;-79
2023/06/27 01:50:52;;;;;;;12.10;3.85;;;;;;;19.41;75.73;99501.97;4819560;29;20062;-78
2023/06/27 01:53:36;;;;;;;12.48;3.88;;;;;;;19.47;75.61;99514.31;4819390;29;20061;-78
2023/06/27 01:56:20;;;;;;;13.02;4.40;;;;;;;19.43;75.81;99507.06;4827275;29;20065;-79
2023/06/27 01:59:05;;;;;;;10.75;4.45;;;;;;;19.29;76.39;99512.69;4817859;29;20588;-78
2023/06/27 02:01:49;;;;;;;10.07;4.38;;;;;;;19.43;75.61;99510.50;4830591;29;20058;-79
2023/06/27 02:04:33;;;;;;;10.35;3.78;;;;;;;19.33;75.80;99507.69;4820120;29;20044;-78
2023/06/27 02:07:18;;;;;;;10.77;4.45;;;;;;;19.13;76.79;99516.94;4815570;29;20057;-79
2023/06/27 02:10:02;;;;;;;11.40;4.28;;;;;;;19.14;76.76;99505.25;4817130;29;20053;-79
2023/06/27 02:12:46;;;;;;;13.07;4.72;;;;;;;19.21;76.73;99499.78;4819366;29;20195;-77
2023/06/27 02:15:31;;;;;;;7.25;4.00;;;;;;;19.12;77.30;99497.50;4820408;29;20050;-79
2023/06/27 02:18:15;;;;;;;20.83;5.78;;;;;;;19.05;77.17;99498.69;4815019;29;20081;-78
2023/06/27 02:20:59;;;;;;;11.20;4.38;;;;;;;19.17;76.87;99499.44;4806324;29;20095;-79
2023/06/27 02:23:43;;;;;;;12.55;4.68;;;;;;;19.29;76.88;99507.34;4830687;29;20126;-79
2023/06/27 02:26:27;;;;;;;9.45;4.00;;;;;;;19.40;76.55;99500.34;4827935;29;20061;-80
2023/06/27 02:29:11;;;;;;;12.70;4.57;;;;;;;19.31;76.71;99493.81;4820315;29;20058;-79
2023/06/27 02:31:56;;;;;;;12.38;4.55;;;;;;;19.30;76.69;99489.56;4820895;29;20053;-78
2023/06/27 02:34:40;;;;;;;9.32;4.05;;;;;;;19.31;76.92;99502.59;4819728;29;20130;-78
2023/06/27 02:37:25;;;;;;;11.85;4.35;;;;;;;19.32;77.09;99500.75;4816098;29;20717;-78
2023/06/27 02:40:09;;;;;;;11.02;4.10;;;;;;;19.34;77.43;99501.31;4814138;29;20093;-78
2023/06/27 02:42:55;;;;;;;16.92;5.18;;;;;;;19.45;77.16;99497.75;4812928;29;20124;-78
2023/06/27 02:45:40;;;;;;;13.88;4.20;;;;;;;19.52;77.08;99498.44;4821841;29;20095;-79
2023/06/27 02:48:24;;;;;;;10.55;4.32;;;;;;;19.64;76.74;99495.69;4815136;29;20049;-78
2023/06/27 02:51:08;;;;;;;10.00;4.07;;;;;;;19.60;76.73;99480.41;4820707;29;20073;-79
2023/06/27 02:53:52;;;;;;;9.98;4.15;;;;;;;19.75;76.41;99493.97;4820679;29;20053;-79
2023/06/27 02:56:36;;;;;;;11.82;4.10;;;;;;;19.61;76.61;99487.34;4822311;29;20068;-79
2023/06/27 02:59:20;;;;;;;7.43;4.00;;;;;;;19.58;76.81;99485.19;4819894;29;20056;-78
2023/06/27 03:02:04;;;;;;;10.43;5.28;;;;;;;19.49;77.09;99498.09;4821051;29;20114;-78
2023/06/27 03:04:50;;;;;;;10.88;4.63;;;;;;;19.59;76.90;99495.59;4820534;29;20417;-79
2023/06/27 03:07:34;;;;;;;12.85;4.78;;;;;;;19.41;77.37;99494.78;4816867;29;20139;-78
2023/06/27 03:10:18;;;;;;;8.73;4.65;;;;;;;19.61;76.93;99498.00;4821810;29;20050;-78
2023/06/27 03:13:02;;;;;;;11.60;4.72;;;;;;;19.60;77.01;99485.75;4823213;29;20093;-78
2023/06/27 03:15:46;;;;;;;10.40;4.72;;;;;;;19.54;77.06;99493.66;4813154;29;20057;-78
2023/06/27 03:18:30;;;;;;;15.00;4.88;;;;;;;19.63;76.98;99490.56;4819515;29;20122;-78
2023/06/27 03:21:15;;;;;;;12.57;4.53;;;;;;;19.62;76.82;99491.63;4818346;29;20429;-77
2023/06/27 03:23:59;;;;;;;16.38;4.20;;;;;;;19.77;76.55;99486.53;4820058;29;20125;-78
2023/06/27 03:26:43;;;;;;;14.52;4.68;;;;;;;19.93;76.01;99486.78;4822556;29;20481;-78
2023/06/27 03:29:27;;;;;;;12.45;4.80;;;;;;;19.93;75.87;99486.78;4822438;29;20097;-78
2023/06/27 03:32:12;;;;;;;17.92;5.35;;;;;;;19.74;76.45;99487.03;4829860;29;20405;-78
2023/06/27 03:34:56;;;;;;;13.55;4.75;;;;;;;19.96;75.84;99495.09;4822362;29;20089;-79
2023/06/27 03:37:40;;;;;;;17.65;4.93;;;;;;;19.78;76.46;99482.03;4827261;29;20096;-78
2023/06/27 03:40:24;;;;;;;13.27;4.65;;;;;;;19.64;76.54;99481.53;4831046;29;20357;-79
2023/06/27 03:43:12;;;;;;;13.60;5.07;;;;;;;19.78;76.32;99472.16;4838151;29;20067;-80
2023/06/27 03:45:56;;;;;;;13.35;4.40;;;;;;;19.77;76.54;99475.88;4821981;29;20102;-78
2023/06/27 03:48:40;;;;;;;23.50;5.15;;;;;;;19.71;76.72;99468.88;4840260;29;20114;-79
2023/06/27 03:51:25;;;;;;;10.45;4.25;;;;;;;19.84;76.01;99484.50;4830687;29;20147;-78
2023/06/27 03:54:09;;;;;;;14.65;4.88;;;;;;;19.96;76.04;99483.63;4839704;29;20049;-78
2023/06/27 03:56:55;;;;;;;17.15;4.78;;;;;;;19.65;76.80;99493.81;4826759;29;20102;-78
2023/06/27 03:59:39;;;;;;;14.38;4.55;;;;;;;19.87;76.37;99479.75;4840692;29;20029;-78
2023/06/27 04:02:23;;;;;;;10.40;4.00;;;;;;;19.76;76.55;99465.50;4838905;29;20045;-78
2023/06/27 04:05:07;;;;;;;16.85;4.88;;;;;;;19.51;77.36;99461.38;4840215;29;20124;-79
2023/06/27 04:07:52;;;;;;;13.95;4.50;;;;;;;19.57;76.98;99446.28;4838192;29;20049;-78
2023/06/27 04:10:42;;;;;;;18.33;5.07;;;;;;;19.52;77.47;99463.81;4821260;29;20073;-77
2023/06/27 04:13:26;;;;;;;18.25;5.30;;;;;;;19.72;77.47;99467.00;4826240;29;20065;-77
2023/06/27 04:16:10;;;;;;;10.73;4.40;;;;;;;19.92;77.08;99469.19;4826403;29;20075;-78
2023/06/27 04:18:55;;;;;;;9.68;4.70;;;;;;;19.76;77.25;99466.28;4826171;29;20056;-77
2023/06/27 04:21:39;;;;;;;13.75;5.55;;;;;;;19.68;77.42;99456.84;4838489;29;20148;-78
2023/06/27 04:24:23;;;;;;;12.20;5.30;;;;;;;20.00;76.86;99463.44;4837049;29;20041;-78
2023/06/27 04:27:10;;;;;;;12.38;5.50;;;;;;;19.84;77.13;99465.06;4840510;29;20129;-78
2023/06/27 04:29:54;;;;;;;13.15;4.78;;;;;;;19.92;76.97;99469.19;4838748;29;20442;-77
2023/06/27 04:32:38;;;;;;;15.98;5.13;;;;;;;19.89;77.27;99467.00;4838733;29;20417;-79
2023/06/27 04:35:23;;;;;;;13.65;5.03;;;;;;;19.84;77.21;99459.72;4838811;29;20057;-78
2023/06/27 04:38:08;;;;;;;18.13;4.75;;;;;;;19.82;77.45;99461.84;4838510;29;20064;-77
2023/06/27 04:40:52;;;;;;;15.57;5.20;;;;;;;19.82;77.24;99473.28;4839640;29;20443;-77
2023/06/27 04:43:39;;;;;;;12.35;5.05;;;;;;;19.92;76.98;99472.66;4838713;29;20044;-78
2023/06/27 04:46:27;;;;;;;10.95;4.72;;;;;;;20.15;76.42;99470.84;4823387;29;20057;-78
2023/06/27 04:49:11;;;;;;;15.73;5.63;;;;;;;20.14;76.57;99463.88;4825883;29;20052;-78
2023/06/27 04:51:56;;;;;;;16.73;5.07;;;;;;;20.19;76.08;99452.47;4824411;29;20110;-77
2023/06/27 04:54:40;;;;;;;12.88;5.55;;;;;;;20.04;76.75;99466.41;4839993;29;20049;-78
2023/06/27 04:57:24;;;;;;;15.75;4.85;;;;;;;20.22;75.87;99459.97;4838347;29;20045;-78
2023/06/27 05:00:10;;;;;;;18.20;5.45;;;;;;;20.03;76.40;99462.94;4838485;29;20048;-78
2023/06/27 05:02:56;;;;;;;12.98;5.18;;;;;;;20.57;75.25;99460.66;4838219;29;20397;-78
2023/06/27 05:05:40;;;;;;;17.08;5.40;;;;;;;20.61;74.38;99464.41;4838193;29;20480;-78
2023/06/27 05:08:25;;;;;;;17.92;5.57;;;;;;;20.78;74.35;99473.13;4824979;29;20067;-78
2023/06/27 05:11:09;;;;;;;9.80;4.30;;;;;;;20.79;74.40;99468.59;4835852;29;20075;-78
2023/06/27 05:13:53;;;;;;;13.32;4.65;;;;;;;20.78;74.75;99477.66;4835673;29;20658;-78
2023/06/27 05:16:37;;;;;;;17.48;6.35;;;;;;;20.89;74.11;99489.25;4835538;29;20420;-78
2023/06/27 05:19:21;;;;;;;10.70;4.97;;;;;;;20.71;74.60;99482.38;4825241;29;20053;-78
2023/06/27 05:22:05;;;;;;;17.50;5.18;;;;;;;20.88;74.66;99475.13;4837608;29;20457;-78
2023/06/27 05:24:51;;;;;;;9.38;4.65;;;;;;;20.98;74.06;99461.06;4824556;29;20114;-77
2023/06/27 05:27:35;;;;;;;11.45;5.00;;;;;;;20.95;74.79;99465.03;4838856;29;20056;-79
2023/06/27 05:30:19;;;;;;;11.00;4.70;;;;;;;21.00;74.29;99463.47;4824673;29;20053;-78
2023/06/27 05:33:03;;;;;;;10.05;4.30;;;;;;;20.86;74.09;99463.09;4838366;29;20121;-78
2023/06/27 05:35:50;;;;;;;8.73;4.60;;;;;;;20.96;74.38;99455.19;4825180;29;20072;-78
2023/06/27 05:38:34;;;;;;;9.27;4.50;;;;;;;21.08;74.73;99460.38;4837268;29;20044;-79
2023/06/27 05:41:18;;;;;;;10.70;4.53;;;;;;;21.02;75.49;99461.34;4835365;29;20466;-78
2023/06/27 05:44:02;;;;;;;12.88;4.55;;;;;;;21.10;75.34;99458.25;4837175;29;20076;-78
2023/06/27 05:46:48;;;;;;;14.35;4.80;;;;;;;21.17;75.50;99448.16;4821295;29;20049;-78
2023/06/27 05:49:33;;;;;;;17.58;5.30;;;;;;;21.05;75.46;99456.31;4825093;29;20133;-78
2023/06/27 05:52:17;;;;;;;12.57;5.55;;;;;;;20.86;76.19;99457.75;4837037;29;20068;-78
2023/06/27 05:55:01;;;;;;;11.82;5.20;;;;;;;21.19;76.08;99467.38;4834609;29;20504;-78
2023/06/27 05:57:45;;;;;;;11.35;4.43;;;;;;;21.34;75.86;99464.03;4837789;29;20048;-78
2023/06/27 06:00:29;;;;;;;17.38;5.32;;;;;;;21.23;76.00;99468.50;4836493;29;20529;-78
2023/06/27 06:03:13;;;;;;;13.02;5.07;;;;;;;21.17;76.10;99461.50;4834563;29;20084;-78
2023/06/27 06:05:57;;;;;;;10.48;5.03;;;;;;;21.26;75.85;99457.31;4835549;29;20125;-78
2023/06/27 06:08:41;;;;;;;15.40;5.05;;;;;;;21.27;75.69;99463.44;4825319;29;20048;-78
2023/06/27 06:11:25;;;;;;;15.82;5.35;;;;;;;21.34;76.17;99464.03;4836943;29;20471;-80
2023/06/27 06:14:09;;;;;;;15.77;5.47;;;;;;;21.20;76.37;99474.31;4836070;29;20099;-78
2023/06/27 06:16:54;;;;;;;20.98;6.45;;;;;;;20.88;77.37;99461.78;4835252;29;20129;-80
2023/06/27 06:19:37;;;;;;;15.82;5.85;;;;;;;20.87;78.08;99476.19;4840625;29;20044;-81
2023/06/27 06:22:22;;;;;;;15.02;5.30;;;;;;;20.80;78.40;99472.91;4842584;29;20049;-79
2023/06/27 06:25:07;;;;;;;11.93;4.93;;;;;;;20.73;79.10;99469.59;4827400;29;20524;-78
2023/06/27 06:27:51;;;;;;;17.75;5.68;;;;;;;20.75;80.06;99478.97;4840185;29;20045;-81
2023/06/27 06:30:36;;;;;;;12.65;5.20;;;;;;;20.83;79.80;99480.38;4841225;29;20440;-82
2023/06/27 06:33:25;;;;;;;16.63;5.82;;;;;;;20.96;80.28;99480.00;4836817;29;20088;-79
2023/06/27 06:36:09;;;;;;;16.23;6.07;;;;;;;21.05;80.31;99487.56;4838681;29;20095;-83
2023/06/27 06:38:54;;;;;;;16.70;5.50;;;;;;;21.01;79.82;99486.44;4840154;29;20061;-83
2023/06/27 06:41:38;;;;;;;15.77;5.90;;;;;;;20.94;80.73;99471.44;4837323;29;20146;-82
2023/06/27 06:44:22;;;;;;;14.07;5.85;;;;;;;20.92;80.48;99489.56;4841015;29;20121;-81
2023/06/27 06:47:06;;;;;;;16.67;5.97;;;;;;;21.03;80.23;99500.31;4836946;29;20110;-82
2023/06/27 06:49:50;;;;;;;19.42;6.47;;;;;;;20.83;80.58;99494.56;4841581;29;20053;-86
2023/06/27 06:52:35;;;;;;;19.30;5.78;;;;;;;20.80;80.97;99494.22;4822171;29;20044;-81
2023/06/27 06:55:19;;;;;;;13.02;5.63;;;;;;;20.81;80.90;99485.19;4830959;29;20057;-83
2023/06/27 06:58:04;;;;;;;16.52;5.35;;;;;;;20.78;80.75;99483.81;4838320;29;20109;-81
2023/06/27 07:00:48;;;;;;;14.60;5.60;;;;;;;21.00;80.93;99482.16;4835788;29;20160;-82
2023/06/27 07:03:33;;;;;;;13.32;5.25;;;;;;;21.14;80.98;99478.03;4837134;29;20048;-83
2023/06/27 07:06:17;;;;;;;22.58;6.40;;;;;;;21.19;80.21;99478.06;4823176;29;20622;-85
2023/06/27 07:09:01;;;;;;;11.05;4.93;;;;;;;21.37;80.06;99481.41;4836809;29;20105;-84
2023/06/27 07:11:45;;;;;;;13.13;5.15;;;;;;;21.52;80.13;99486.88;4827082;29;20516;-83
2023/06/27 07:14:29;;;;;;;11.68;5.47;;;;;;;21.61;79.73;99468.50;4839068;29;20129;-84
2023/06/27 07:17:13;;;;;;;17.00;6.25;;;;;;;21.66;79.63;99481.91;4835300;29;20053;-84
2023/06/27 07:19:57;;;;;;;16.30;5.47;;;;;;;21.65;79.19;99476.84;4835242;29;20053;-86
2023/06/27 07:22:41;;;;;;;12.70;5.30;;;;;;;21.74;79.57;99477.16;4826766;29;20049;-81
2023/06/27 07:25:25;;;;;;;18.40;5.85;;;;;;;21.85;79.14;99486.03;4835409;29;20459;-81
2023/06/27 07:28:10;;;;;;;14.10;5.00;;;;;;;21.95;78.05;99492.25;4837874;29;20388;-83
2023/06/27 07:30:54;;;;;;;13.15;5.13;;;;;;;21.80;77.92;99484.13;4833757;29;20559;-83
2023/06/27 07:33:38;;;;;;;14.52;4.60;;;;;;;22.08;77.82;99493.66;4839902;29;20574;-85
2023/06/27 07:36:22;;;;;;;14.85;4.80;;;;;;;22.06;77.64;99495.78;4827209;29;20107;-83
2023/06/27 07:39:06;;;;;;;12.05;5.18;;;;;;;22.13;77.26;99492.06;4841050;29;20504;-83
2023/06/27 07:41:50;;;;;;;12.48;5.32;;;;;;;22.00;77.70;99488.78;4837589;29;20094;-85
2023/06/27 07:44:34;;;;;;;12.43;5.43;;;;;;;21.93;77.81;99490.88;4836065;29;20090;-79
2023/06/27 07:47:18;;;;;;;13.20;5.45;;;;;;;22.01;78.13;99493.09;4835296;29;20057;-79
2023/06/27 07:50:03;;;;;;;15.68;5.15;;;;;;;22.07;79.03;99494.72;4836697;29;20526;-80
2023/06/27 07:52:47;;;;;;;11.43;4.75;;;;;;;21.85;79.64;99496.72;4821790;29;20044;-80
2023/06/27 07:55:31;;;;;;;15.07;5.22;;;;;;;21.75;80.81;99490.25;4839214;29;20053;-79
2023/06/27 07:58:15;;;;;;;15.60;5.60;;;;;;;21.82;80.72;99498.03;4836565;29;20123;-80
2023/06/27 08:01:20;;;;;;;17.40;6.50;;;;;;;21.69;81.26;99494.75;4834214;29;20048;-77
2023/06/27 08:04:04;;;;;;;19.50;5.78;;;;;;;21.58;81.24;99489.56;4839046;29;20060;-78
2023/06/27 08:06:48;;;;;;;23.88;5.93;;;;;;;21.45;82.03;99480.13;4823135;29;20053;-79
2023/06/27 08:09:32;;;;;;;11.70;5.43;;;;;;;21.47;82.92;99489.50;4824831;29;20131;-80
2023/06/27 08:12:16;;;;;;;13.55;5.70;;;;;;;21.33;82.40;99480.31;4821305;29;20197;-80
2023/06/27 08:15:00;;;;;;;20.33;5.75;;;;;;;21.43;82.71;99472.38;4826658;29;20082;-80
2023/06/27 08:17:43;;;;;;;16.75;5.50;;;;;;;21.38;83.15;99475.81;4834518;29;20192;-79
2023/06/27 08:20:28;;;;;;;11.35;5.35;;;;;;;21.46;82.52;99477.22;4826368;29;20130;-77
2023/06/27 08:23:12;;;;;;;10.40;5.07;;;;;;;21.65;82.02;99484.84;4840445;29;20060;-79
2023/06/27 08:25:56;;;;;;;16.20;5.65;;;;;;;21.66;82.11;99475.78;4839614;29;20067;-82
2023/06/27 08:28:40;;;;;;;13.30;5.55;;;;;;;21.40;81.23;99473.69;4820932;29;21752;-82
2023/06/27 08:31:24;;;;;;;15.52;5.97;;;;;;;21.74;81.37;99474.50;4826035;29;20056;-82
2023/06/27 08:34:08;;;;;;;15.95;6.57;;;;;;;21.65;80.92;99463.47;4839497;29;20049;-81
2023/06/27 08:36:52;;;;;;;20.67;7.13;;;;;;;21.69;80.92;99460.00;4839532;29;20110;-81
2023/06/27 08:39:37;;;;;;;18.13;5.78;;;;;;;21.88;81.05;99453.44;4837834;29;20048;-80
2023/06/27 08:42:22;;;;;;;13.95;5.90;;;;;;;21.94;80.54;99463.09;4824255;29;20056;-81
2023/06/27 08:45:07;;;;;;;14.77;6.00;;;;;;;22.10;79.76;99459.44;4838835;29;20160;-81
2023/06/27 08:47:51;;;;;;;11.88;5.60;;;;;;;22.25;79.89;99447.19;4826520;29;20056;-82
2023/06/27 08:50:39;;;;;;;13.35;5.38;;;;;;;22.21;79.61;99444.25;4825196;29;20067;-81
2023/06/27 08:53:30;;;;;;;12.50;5.78;;;;;;;22.30;79.23;99451.75;4829477;29;20071;-82
2023/06/27 08:56:17;;;;;;;16.98;5.40;;;;;;;22.48;78.61;99453.19;4821173;29;20052;-82
2023/06/27 08:59:03;;;;;;;11.32;5.07;;;;;;;22.60;78.21;99445.72;4835199;29;20056;-82
2023/06/27 09:01:48;;;;;;;13.25;5.18;;;;;;;22.63;78.70;99449.72;4839813;29;20040;-79
2023/06/27 09:04:35;;;;;;;12.30;5.15;;;;;;;22.66;78.64;99441.16;4838975;29;20125;-79
2023/06/27 09:07:19;;;;;;;11.82;4.80;;;;;;;22.78;78.75;99443.59;4834862;29;20106;-77
2023/06/27 09:10:03;;;;;;;;;;;;;;;22.83;78.58;99443.63;4839349;29;20072;-78
2023/06/27 09:12:49;;;;;;;12.52;5.32;;;;;;;22.83;78.80;99440.94;4838272;29;20352;-78
2023/06/27 09:15:34;;;;;;;13.35;5.68;;;;;;;22.92;78.93;99436.66;4837369;29;20060;-79
2023/06/27 09:18:18;;;;;;;11.77;5.10;;;;;;;23.13;78.28;99433.97;4823850;29;20565;-78
2023/06/27 09:21:03;;;;;;;9.35;5.25;;;;;;;23.27;78.32;99442.28;4825352;29;20189;-79
2023/06/27 09:23:49;;;;;;;19.27;5.95;;;;;;;23.32;78.25;99433.47;4837832;29;20503;-79
2023/06/27 09:26:33;;;;;;;13.27;5.38;;;;;;;23.25;78.37;99437.22;4828306;29;20040;-79
2023/06/27 09:29:19;;;;;;;12.85;4.82;;;;;;;23.48;77.40;99432.38;4832032;29;20041;-79
2023/06/27 09:32:09;;;;;;;14.77;5.13;;;;;;;23.58;77.36;99436.09;4830611;29;20512;-78
2023/06/27 09:34:53;;;;;;;10.55;5.15;;;;;;;23.74;76.38;99436.88;4830177;29;20057;-78
2023/06/27 09:37:37;;;;;;;14.38;5.60;;;;;;;23.86;76.11;99433.88;4829962;29;20156;-80
2023/06/27 09:40:25;;;;;;;12.68;4.85;;;;;;;24.10;76.35;99440.25;4830031;29;20117;-78
2023/06/27 09:43:11;;;;;;;17.65;6.30;;;;;;;24.41;75.38;99433.94;4834341;29;20053;-79
2023/06/27 09:45:59;;;;;;;11.40;5.40;;;;;;;24.67;75.11;99426.53;4835741;29;20040;-79
2023/06/27 09:48:43;;;;;;;15.55;5.57;;;;;;;24.75;75.22;99435.06;4834863;29;20110;-79
2023/06/27 09:51:28;;;;;;;11.75;5.32;;;;;;;25.06;74.77;99440.22;4836909;29;20052;-80
2023/06/27 09:54:13;;;;;;;15.30;5.65;;;;;;;25.11;74.02;99437.50;4831503;29;20187;-80
2023/06/27 09:56:57;;;;;;;8.57;5.38;;;;;;;25.18;74.06;99432.63;4827576;29;20143;-80
2023/06/27 09:59:41;;;;;;;10.95;5.70;;;;;;;25.15;73.79;99435.84;4835886;29;20401;-79
2023/06/27 10:02:29;;;;;;;12.07;5.75;;;;;;;24.61;74.04;99424.97;4830937;29;20056;-80
2023/06/27 10:05:13;;;;;;;11.55;5.90;;;;;;;24.89;73.90;99430.69;4824587;29;20125;-79
2023/06/27 10:07:57;;;;;;;12.85;5.47;;;;;;;24.91;73.90;99415.09;4838322;29;20041;-80
2023/06/27 10:10:41;;;;;;;16.48;6.28;;;;;;;25.13;73.41;99426.47;4821026;29;20049;-80
2023/06/27 10:13:25;;;;;;;12.68;5.22;;;;;;;24.82;74.59;99427.53;4829694;29;20041;-80
2023/06/27 10:16:10;;;;;;;11.43;5.30;;;;;;;24.80;74.68;99424.31;4834358;29;20557;-83
2023/06/27 10:18:55;;;;;;;11.23;5.03;;;;;;;24.73;75.78;99431.84;4824556;29;20092;-83
2023/06/27 10:21:40;;;;;;;16.40;5.72;;;;;;;24.48;76.22;99431.75;4841080;29;20048;-84
2023/06/27 10:24:25;;;;;;;11.57;5.90;;;;;;;24.47;76.17;99424.78;4824681;29;20040;-85
2023/06/27 10:27:13;;;;;;;12.15;5.50;;;;;;;24.62;76.47;99415.84;4824959;29;20041;-83
2023/06/27 10:29:57;;;;;;;11.00;5.13;;;;;;;24.71;75.90;99413.34;4835209;29;20049;-83
2023/06/27 10:32:45;;;;;;;11.55;5.70;;;;;;;24.78;74.16;99423.81;4825343;29;20057;-83
2023/06/27 10:35:29;;;;;;;10.85;5.13;;;;;;;24.88;74.53;99429.09;4840334;29;20107;-83
2023/06/27 10:38:15;;;;;;;10.13;5.93;;;;;;;24.62;75.00;99431.94;4837637;29;20049;-83
2023/06/27 10:41:04;;;;;;;15.77;5.75;;;;;;;25.02;75.26;99425.78;4839359;29;20106;-85
2023/06/27 10:43:50;;;;;;;7.45;5.38;;;;;;;25.03;75.37;99420.09;4827324;29;20133;-85
2023/06/27 10:46:35;;;;;;;10.02;5.80;;;;;;;24.86;74.60;99423.19;4826882;29;20072;-85
2023/06/27 10:49:34;;;;;;;10.52;5.25;;;;;;;24.84;75.91;99419.19;4826114;29;20065;-86
2023/06/27 10:52:23;;;;;;;12.48;5.68;;;;;;;24.91;75.39;99407.03;4837175;29;20076;-85
2023/06/27 10:55:18;;;;;;;9.40;5.30;;;;;;;24.90;74.01;99408.13;4840330;29;20088;-83
2023/06/27 10:58:04;;;;;;;9.23;5.93;;;;;;;25.22;74.63;99406.78;4837544;29;20073;-82
2023/06/27 11:00:54;;;;;;;10.20;5.00;;;;;;;25.33;73.04;99406.66;4832381;29;20045;-82
2023/06/27 11:03:41;;;;;;;9.77;4.95;;;;;;;25.44;73.94;99408.19;4838251;29;20122;-83
2023/06/27 11:06:41;;;;;;;11.02;6.00;;;;;;;25.59;73.57;99403.75;4840715;29;20137;-82
2023/06/27 11:09:30;;;;;;;9.50;5.10;;;;;;;25.23;72.77;99405.69;4836559;29;20446;-85
2023/06/27 11:12:16;;;;;;;20.33;6.53;;;;;;;25.19;73.51;99396.63;4840992;29;20425;-83
2023/06/27 11:15:02;;;;;;;19.17;6.18;;;;;;;25.12;74.13;99400.72;4839713;29;20049;-85
2023/06/27 11:17:46;;;;;;;19.08;6.50;;;;;;;24.94;74.18;99385.00;4823581;29;20159;-82
2023/06/27 11:20:31;;;;;;;20.10;7.05;;;;;;;24.86;74.51;99393.66;4821135;29;20048;-81
2023/06/27 11:23:17;;;;;;;13.70;6.38;;;;;;;24.55;75.45;99399.22;4835129;29;20448;-82
2023/06/27 11:26:01;;;;;;;12.43;5.43;;;;;;;24.51;75.55;99390.13;4829672;29;20041;-81
2023/06/27 11:28:45;;;;;;;16.65;6.78;;;;;;;24.57;75.77;99386.34;4832819;29;20114;-82
2023/06/27 11:31:29;;;;;;;12.40;6.05;;;;;;;24.70;74.99;99384.91;4839191;29;20523;-82
2023/06/27 11:34:15;;;;;;;13.73;5.53;;;;;;;24.47;75.08;99386.41;4839120;29;20061;-81
2023/06/27 11:36:59;;;;;;;11.27;6.20;;;;;;;24.48;77.11;99371.91;4831054;29;20446;-82
2023/06/27 11:39:54;;;;;;;10.18;6.13;;;;;;;24.41;77.20;99372.22;4836968;29;20045;-83
2023/06/27 11:42:38;;;;;;;12.43;6.10;;;;;;;24.36;76.20;99364.22;4832485;29;20057;-81
2023/06/27 11:45:21;;;;;;;12.55;6.03;;;;;;;24.63;76.61;99357.56;4819199;29;20125;-82
2023/06/27 11:48:05;;;;;;;14.32;5.85;;;;;;;24.63;76.37;99361.06;4833561;29;20048;-82
2023/06/27 11:50:58;;;;;;;9.70;6.03;;;;;;;24.75;75.08;99360.75;4823437;29;20107;-82
2023/06/27 11:53:50;;;;;;;14.48;6.47;;;;;;;24.61;75.26;99355.19;4833465;29;20056;-82
2023/06/27 11:56:41;;;;;;;11.85;6.32;;;;;;;24.75;74.35;99358.06;4831356;29;20585;-81
2023/06/27 11:59:32;;;;;;;13.40;6.18;;;;;;;24.62;74.89;99362.16;4819231;29;20133;-82
2023/06/27 12:02:16;;;;;;;13.95;6.13;;;;;;;24.48;73.54;99371.91;4838003;29;20509;-80
2023/06/27 12:05:00;;;;;;;8.02;5.72;;;;;;;24.26;74.26;99362.41;4838396;29;20065;-82
2023/06/27 12:08:04;;;;;;;17.90;6.63;;;;;;;24.47;73.87;99365.75;4820668;29;20052;-83
2023/06/27 12:11:00;;;;;;;12.30;6.40;;;;;;;24.59;73.13;99364.59;4832788;29;20053;-83
2023/06/27 12:13:45;;;;;;;13.13;6.40;;;;;;;24.61;73.67;99347.13;4824785;29;20057;-84
2023/06/27 12:16:33;;;;;;;24.27;6.93;;;;;;;24.51;72.78;99342.66;4832049;29;20045;-81
2023/06/27 12:19:19;;;;;;;17.30;6.40;;;;;;;24.62;72.36;99351.41;4835481;29;21884;-82
2023/06/27 12:22:03;;;;;;;21.23;6.55;;;;;;;24.51;71.73;99347.19;4838065;29;20119;-83
2023/06/27 12:24:48;;;;;;;29.70;7.65;;;;;;;24.56;72.12;99347.16;4839695;29;20122;-83
2023/06/27 12:27:35;;;;;;;44.60;9.63;;;;;;;24.67;71.25;99347.91;4826720;29;20064;-84
2023/06/27 12:30:19;;;;;;;14.70;6.30;;;;;;;24.57;71.36;99346.09;4839077;29;20503;-82
2023/06/27 12:33:03;;;;;;;31.95;7.55;;;;;;;24.76;71.56;99348.09;4838735;29;20144;-82
2023/06/27 12:35:48;;;;;;;25.42;6.55;;;;;;;24.87;71.28;99335.41;4840139;29;20114;-82
2023/06/27 12:38:32;;;;;;;27.83;7.10;;;;;;;24.94;70.72;99333.97;4839986;29;20049;-82
2023/06/27 12:41:21;;;;;;;26.92;6.55;;;;;;;24.76;71.13;99326.63;4838939;29;20056;-82
2023/06/27 12:44:05;;;;;;;25.85;7.53;;;;;;;24.97;71.78;99329.16;4836119;29;20192;-81
2023/06/27 12:46:48;;;;;;;16.15;6.32;;;;;;;25.38;71.19;99320.66;4839889;29;20064;-82
2023/06/27 12:49:32;;;;;;;15.48;6.30;;;;;;;25.84;71.07;99313.13;4824815;29;20081;-82
2023/06/27 12:52:16;;;;;;;30.27;6.93;;;;;;;25.92;69.45;99310.59;4825998;29;20115;-82